sensor_id;sensor_type;location;lat;lon;timestamp;P1;durP1;ratioP1;P2;durP2;ratioP2
77968;SDS011;67161;0.000;0.000;2023-04-06T00:01:30;887.50;;;280.77;;
77968;SDS011;67161;0.000;0.000;2023-04-06T00:03:55;869.22;;;276.92;;
77968;SDS011;67161;0.000;0.000;2023-04-06T00:06:21;874.88;;;277.30;;
77968;SDS011;67161;0.000;0.000;2023-04-06T00:08:46;866.55;;;275.67;;
77968;SDS011;67161;0.000;0.000;2023-04-06T00:11:12;868.08;;;274.90;;
77968;SDS011;67161;0.000;0.000;2023-04-06T00:13:37;866.00;;;274.13;;
77968;SDS011;67161;0.000;0.000;2023-04-06T00:16:03;870.60;;;275.55;;
77968;SDS011;67161;0.000;0.000;2023-04-06T00:18:30;869.50;;;275.40;;
77968;SDS011;67161;0.000;0.000;2023-04-06T00:20:56;870.70;;;275.92;;
77968;SDS011;67161;0.000;0.000;2023-04-06T00:23:22;867.58;;;274.58;;
77968;SDS011;67161;0.000;0.000;2023-04-06T00:25:47;867.10;;;275.15;;
77968;SDS011;67161;0.000;0.000;2023-04-06T00:28:13;860.45;;;273.95;;
77968;SDS011;67161;0.000;0.000;2023-04-06T00:30:39;866.72;;;275.83;;
77968;SDS011;67161;0.000;0.000;2023-04-06T00:33:05;860.20;;;273.88;;
77968;SDS011;67161;0.000;0.000;2023-04-06T00:35:31;856.58;;;272.40;;
77968;SDS011;67161;0.000;0.000;2023-04-06T00:37:57;859.95;;;272.60;;
77968;SDS011;67161;0.000;0.000;2023-04-06T00:40:22;861.35;;;272.73;;
77968;SDS011;67161;0.000;0.000;2023-04-06T00:42:48;859.83;;;273.70;;
77968;SDS011;67161;0.000;0.000;2023-04-06T00:45:14;865.92;;;274.40;;
77968;SDS011;67161;0.000;0.000;2023-04-06T00:47:39;864.40;;;273.92;;
77968;SDS011;67161;0.000;0.000;2023-04-06T00:50:05;862.33;;;274.05;;
77968;SDS011;67161;0.000;0.000;2023-04-06T00:52:31;859.95;;;272.15;;
77968;SDS011;67161;0.000;0.000;2023-04-06T00:54:58;858.95;;;273.25;;
77968;SDS011;67161;0.000;0.000;2023-04-06T00:57:24;861.72;;;273.25;;
77968;SDS011;67161;0.000;0.000;2023-04-06T00:59:49;865.85;;;274.35;;
77968;SDS011;67161;0.000;0.000;2023-04-06T01:02:17;857.63;;;273.33;;
77968;SDS011;67161;0.000;0.000;2023-04-06T01:04:43;849.53;;;270.70;;
77968;SDS011;67161;0.000;0.000;2023-04-06T01:07:09;850.85;;;270.95;;
77968;SDS011;67161;0.000;0.000;2023-04-06T01:09:35;855.80;;;271.02;;
77968;SDS011;67161;0.000;0.000;2023-04-06T01:12:00;859.03;;;272.58;;
77968;SDS011;67161;0.000;0.000;2023-04-06T01:14:26;850.33;;;271.10;;
77968;SDS011;67161;0.000;0.000;2023-04-06T01:16:52;854.03;;;270.95;;
77968;SDS011;67161;0.000;0.000;2023-04-06T01:19:17;847.42;;;270.50;;
77968;SDS011;67161;0.000;0.000;2023-04-06T01:21:43;849.83;;;271.23;;
77968;SDS011;67161;0.000;0.000;2023-04-06T01:24:09;855.00;;;271.20;;
77968;SDS011;67161;0.000;0.000;2023-04-06T01:26:35;850.90;;;271.70;;
77968;SDS011;67161;0.000;0.000;2023-04-06T01:29:02;849.53;;;271.55;;
77968;SDS011;67161;0.000;0.000;2023-04-06T01:31:28;849.58;;;271.25;;
77968;SDS011;67161;0.000;0.000;2023-04-06T01:33:54;853.80;;;271.13;;
77968;SDS011;67161;0.000;0.000;2023-04-06T01:36:20;854.13;;;273.75;;
77968;SDS011;67161;0.000;0.000;2023-04-06T01:38:46;848.97;;;271.23;;
77968;SDS011;67161;0.000;0.000;2023-04-06T01:41:12;858.50;;;272.63;;
77968;SDS011;67161;0.000;0.000;2023-04-06T01:43:38;857.03;;;272.17;;
77968;SDS011;67161;0.000;0.000;2023-04-06T01:46:04;862.08;;;273.48;;
77968;SDS011;67161;0.000;0.000;2023-04-06T01:48:30;854.35;;;272.83;;
77968;SDS011;67161;0.000;0.000;2023-04-06T01:50:55;858.85;;;273.60;;
77968;SDS011;67161;0.000;0.000;2023-04-06T01:53:21;855.65;;;271.95;;
77968;SDS011;67161;0.000;0.000;2023-04-06T01:55:47;852.22;;;272.17;;
77968;SDS011;67161;0.000;0.000;2023-04-06T01:58:13;847.42;;;270.48;;
77968;SDS011;67161;0.000;0.000;2023-04-06T02:00:38;860.92;;;273.38;;
77968;SDS011;67161;0.000;0.000;2023-04-06T02:03:04;856.90;;;273.30;;
77968;SDS011;67161;0.000;0.000;2023-04-06T02:05:30;863.20;;;274.08;;
77968;SDS011;67161;0.000;0.000;2023-04-06T02:07:58;866.33;;;276.52;;
77968;SDS011;67161;0.000;0.000;2023-04-06T02:10:23;863.97;;;274.48;;
77968;SDS011;67161;0.000;0.000;2023-04-06T02:12:49;856.92;;;273.40;;
77968;SDS011;67161;0.000;0.000;2023-04-06T02:15:15;861.10;;;275.05;;
77968;SDS011;67161;0.000;0.000;2023-04-06T02:17:41;857.00;;;272.23;;
77968;SDS011;67161;0.000;0.000;2023-04-06T02:20:07;854.75;;;272.98;;
77968;SDS011;67161;0.000;0.000;2023-04-06T02:22:34;851.03;;;271.25;;
77968;SDS011;67161;0.000;0.000;2023-04-06T02:25:00;861.75;;;273.85;;
77968;SDS011;67161;0.000;0.000;2023-04-06T02:27:26;862.15;;;274.98;;
77968;SDS011;67161;0.000;0.000;2023-04-06T02:29:52;860.70;;;274.88;;
77968;SDS011;67161;0.000;0.000;2023-04-06T02:32:18;847.15;;;270.42;;
77968;SDS011;67161;0.000;0.000;2023-04-06T02:34:44;857.55;;;274.02;;
77968;SDS011;67161;0.000;0.000;2023-04-06T02:37:09;853.50;;;272.08;;
77968;SDS011;67161;0.000;0.000;2023-04-06T02:39:35;855.88;;;271.58;;
77968;SDS011;67161;0.000;0.000;2023-04-06T02:42:00;858.42;;;272.95;;
77968;SDS011;67161;0.000;0.000;2023-04-06T02:44:26;860.83;;;273.25;;
77968;SDS011;67161;0.000;0.000;2023-04-06T02:46:52;857.45;;;273.80;;
77968;SDS011;67161;0.000;0.000;2023-04-06T02:49:17;859.88;;;274.65;;
77968;SDS011;67161;0.000;0.000;2023-04-06T02:51:43;875.42;;;279.88;;
77968;SDS011;67161;0.000;0.000;2023-04-06T02:54:08;876.83;;;278.77;;
77968;SDS011;67161;0.000;0.000;2023-04-06T02:56:34;873.15;;;278.38;;
77968;SDS011;67161;0.000;0.000;2023-04-06T02:59:00;856.40;;;274.70;;
77968;SDS011;67161;0.000;0.000;2023-04-06T03:01:25;852.42;;;271.67;;
77968;SDS011;67161;0.000;0.000;2023-04-06T03:03:51;854.65;;;271.92;;
77968;SDS011;67161;0.000;0.000;2023-04-06T03:06:17;844.28;;;269.92;;
77968;SDS011;67161;0.000;0.000;2023-04-06T03:08:42;849.58;;;271.48;;
77968;SDS011;67161;0.000;0.000;2023-04-06T03:11:08;842.58;;;268.98;;
77968;SDS011;67161;0.000;0.000;2023-04-06T03:13:33;842.90;;;268.75;;
77968;SDS011;67161;0.000;0.000;2023-04-06T03:16:01;846.38;;;269.30;;
77968;SDS011;67161;0.000;0.000;2023-04-06T03:18:26;841.42;;;268.55;;
77968;SDS011;67161;0.000;0.000;2023-04-06T03:20:52;844.55;;;268.92;;
77968;SDS011;67161;0.000;0.000;2023-04-06T03:23:21;845.88;;;269.90;;
77968;SDS011;67161;0.000;0.000;2023-04-06T03:25:46;842.15;;;268.48;;
77968;SDS011;67161;0.000;0.000;2023-04-06T03:28:12;841.33;;;269.17;;
77968;SDS011;67161;0.000;0.000;2023-04-06T03:30:37;846.53;;;270.98;;
77968;SDS011;67161;0.000;0.000;2023-04-06T03:33:03;846.28;;;270.73;;
77968;SDS011;67161;0.000;0.000;2023-04-06T03:35:29;846.00;;;270.33;;
77968;SDS011;67161;0.000;0.000;2023-04-06T03:37:55;870.17;;;277.08;;
77968;SDS011;67161;0.000;0.000;2023-04-06T03:40:20;857.53;;;275.08;;
77968;SDS011;67161;0.000;0.000;2023-04-06T03:42:46;848.63;;;272.33;;
77968;SDS011;67161;0.000;0.000;2023-04-06T03:45:11;852.65;;;272.70;;
77968;SDS011;67161;0.000;0.000;2023-04-06T03:47:40;853.05;;;273.58;;
77968;SDS011;67161;0.000;0.000;2023-04-06T03:50:06;854.03;;;274.15;;
77968;SDS011;67161;0.000;0.000;2023-04-06T03:52:31;861.25;;;275.48;;
77968;SDS011;67161;0.000;0.000;2023-04-06T03:54:57;861.42;;;274.00;;
77968;SDS011;67161;0.000;0.000;2023-04-06T03:57:22;856.55;;;274.92;;
77968;SDS011;67161;0.000;0.000;2023-04-06T03:59:48;853.45;;;271.67;;
77968;SDS011;67161;0.000;0.000;2023-04-06T04:02:14;855.72;;;273.25;;
77968;SDS011;67161;0.000;0.000;2023-04-06T04:04:40;853.85;;;271.58;;
77968;SDS011;67161;0.000;0.000;2023-04-06T04:07:05;847.03;;;271.05;;
77968;SDS011;67161;0.000;0.000;2023-04-06T04:09:31;846.08;;;271.10;;
77968;SDS011;67161;0.000;0.000;2023-04-06T04:11:56;845.97;;;271.10;;
77968;SDS011;67161;0.000;0.000;2023-04-06T04:14:22;852.60;;;271.83;;
77968;SDS011;67161;0.000;0.000;2023-04-06T04:16:47;849.17;;;270.20;;
77968;SDS011;67161;0.000;0.000;2023-04-06T04:19:13;849.50;;;271.15;;
77968;SDS011;67161;0.000;0.000;2023-04-06T04:21:45;849.08;;;270.45;;
77968;SDS011;67161;0.000;0.000;2023-04-06T04:24:11;851.65;;;271.73;;
77968;SDS011;67161;0.000;0.000;2023-04-06T04:26:38;835.20;;;268.15;;
77968;SDS011;67161;0.000;0.000;2023-04-06T04:29:04;833.42;;;267.10;;
77968;SDS011;67161;0.000;0.000;2023-04-06T04:31:30;840.35;;;267.60;;
77968;SDS011;67161;0.000;0.000;2023-04-06T04:33:56;829.00;;;265.10;;
77968;SDS011;67161;0.000;0.000;2023-04-06T04:36:23;832.10;;;264.85;;
77968;SDS011;67161;0.000;0.000;2023-04-06T04:38:50;830.78;;;265.33;;
77968;SDS011;67161;0.000;0.000;2023-04-06T04:41:16;835.22;;;266.35;;
77968;SDS011;67161;0.000;0.000;2023-04-06T04:43:42;826.78;;;264.48;;
77968;SDS011;67161;0.000;0.000;2023-04-06T04:46:07;833.90;;;266.67;;
77968;SDS011;67161;0.000;0.000;2023-04-06T04:48:33;833.17;;;264.55;;
77968;SDS011;67161;0.000;0.000;2023-04-06T04:50:59;834.05;;;265.92;;
77968;SDS011;67161;0.000;0.000;2023-04-06T04:53:25;825.65;;;263.88;;
77968;SDS011;67161;0.000;0.000;2023-04-06T04:55:50;830.97;;;264.00;;
77968;SDS011;67161;0.000;0.000;2023-04-06T04:58:16;819.20;;;261.65;;
77968;SDS011;67161;0.000;0.000;2023-04-06T05:00:43;830.20;;;264.55;;
77968;SDS011;67161;0.000;0.000;2023-04-06T05:03:09;828.60;;;264.05;;
77968;SDS011;67161;0.000;0.000;2023-04-06T05:05:43;832.45;;;264.75;;
77968;SDS011;67161;0.000;0.000;2023-04-06T05:08:08;828.88;;;264.85;;
77968;SDS011;67161;0.000;0.000;2023-04-06T05:10:34;832.97;;;265.05;;
77968;SDS011;67161;0.000;0.000;2023-04-06T05:13:00;836.63;;;265.63;;
77968;SDS011;67161;0.000;0.000;2023-04-06T05:15:26;826.45;;;264.83;;
77968;SDS011;67161;0.000;0.000;2023-04-06T05:17:51;833.63;;;264.70;;
77968;SDS011;67161;0.000;0.000;2023-04-06T05:20:17;831.47;;;264.42;;
77968;SDS011;67161;0.000;0.000;2023-04-06T05:22:43;825.40;;;263.88;;
77968;SDS011;67161;0.000;0.000;2023-04-06T05:25:08;828.92;;;263.42;;
77968;SDS011;67161;0.000;0.000;2023-04-06T05:27:34;823.08;;;261.33;;
77968;SDS011;67161;0.000;0.000;2023-04-06T05:29:59;818.45;;;261.30;;
77968;SDS011;67161;0.000;0.000;2023-04-06T05:32:26;827.78;;;263.00;;
77968;SDS011;67161;0.000;0.000;2023-04-06T05:34:52;817.28;;;259.52;;
77968;SDS011;67161;0.000;0.000;2023-04-06T05:37:18;821.03;;;260.67;;
77968;SDS011;67161;0.000;0.000;2023-04-06T05:39:43;818.40;;;261.48;;
77968;SDS011;67161;0.000;0.000;2023-04-06T05:42:09;827.58;;;263.65;;
77968;SDS011;67161;0.000;0.000;2023-04-06T05:44:36;826.97;;;262.45;;
77968;SDS011;67161;0.000;0.000;2023-04-06T05:47:02;825.55;;;261.92;;
77968;SDS011;67161;0.000;0.000;2023-04-06T05:49:28;821.53;;;261.63;;
77968;SDS011;67161;0.000;0.000;2023-04-06T05:51:54;832.28;;;264.23;;
77968;SDS011;67161;0.000;0.000;2023-04-06T05:54:20;831.95;;;263.83;;
77968;SDS011;67161;0.000;0.000;2023-04-06T05:56:45;826.63;;;262.73;;
77968;SDS011;67161;0.000;0.000;2023-04-06T05:59:11;825.70;;;262.20;;
77968;SDS011;67161;0.000;0.000;2023-04-06T06:01:37;822.47;;;262.85;;
77968;SDS011;67161;0.000;0.000;2023-04-06T06:04:02;832.45;;;264.23;;
77968;SDS011;67161;0.000;0.000;2023-04-06T06:06:28;821.50;;;261.10;;
77968;SDS011;67161;0.000;0.000;2023-04-06T06:08:57;824.13;;;262.75;;
77968;SDS011;67161;0.000;0.000;2023-04-06T06:11:27;827.40;;;263.42;;
77968;SDS011;67161;0.000;0.000;2023-04-06T06:13:53;823.22;;;261.80;;
77968;SDS011;67161;0.000;0.000;2023-04-06T06:16:18;843.38;;;267.33;;
77968;SDS011;67161;0.000;0.000;2023-04-06T06:18:44;833.33;;;263.75;;
77968;SDS011;67161;0.000;0.000;2023-04-06T06:21:10;826.53;;;261.27;;
77968;SDS011;67161;0.000;0.000;2023-04-06T06:23:38;819.13;;;260.85;;
77968;SDS011;67161;0.000;0.000;2023-04-06T06:26:04;820.42;;;261.10;;
77968;SDS011;67161;0.000;0.000;2023-04-06T06:28:30;821.53;;;260.27;;
77968;SDS011;67161;0.000;0.000;2023-04-06T06:30:56;825.00;;;262.70;;
77968;SDS011;67161;0.000;0.000;2023-04-06T06:33:21;826.58;;;260.27;;
77968;SDS011;67161;0.000;0.000;2023-04-06T06:35:47;814.45;;;259.27;;
77968;SDS011;67161;0.000;0.000;2023-04-06T06:38:13;815.58;;;260.23;;
77968;SDS011;67161;0.000;0.000;2023-04-06T06:40:40;822.80;;;260.48;;
77968;SDS011;67161;0.000;0.000;2023-04-06T06:43:05;821.17;;;261.10;;
77968;SDS011;67161;0.000;0.000;2023-04-06T06:45:31;825.63;;;261.67;;
77968;SDS011;67161;0.000;0.000;2023-04-06T06:47:57;811.30;;;258.20;;
77968;SDS011;67161;0.000;0.000;2023-04-06T06:50:23;808.83;;;257.58;;
77968;SDS011;67161;0.000;0.000;2023-04-06T06:52:48;799.38;;;254.77;;
77968;SDS011;67161;0.000;0.000;2023-04-06T06:55:14;811.65;;;257.75;;
77968;SDS011;67161;0.000;0.000;2023-04-06T06:57:40;812.17;;;257.60;;
77968;SDS011;67161;0.000;0.000;2023-04-06T07:00:07;814.08;;;257.70;;
77968;SDS011;67161;0.000;0.000;2023-04-06T07:02:34;808.38;;;256.42;;
77968;SDS011;67161;0.000;0.000;2023-04-06T07:05:00;810.40;;;256.73;;
77968;SDS011;67161;0.000;0.000;2023-04-06T07:07:26;812.03;;;257.05;;
77968;SDS011;67161;0.000;0.000;2023-04-06T07:09:52;814.40;;;258.15;;
77968;SDS011;67161;0.000;0.000;2023-04-06T07:12:17;818.13;;;258.23;;
77968;SDS011;67161;0.000;0.000;2023-04-06T07:14:43;802.95;;;255.00;;
77968;SDS011;67161;0.000;0.000;2023-04-06T07:17:09;804.22;;;253.68;;
77968;SDS011;67161;0.000;0.000;2023-04-06T07:19:35;813.38;;;258.38;;
77968;SDS011;67161;0.000;0.000;2023-04-06T07:22:00;813.17;;;258.80;;
77968;SDS011;67161;0.000;0.000;2023-04-06T07:24:27;799.85;;;255.20;;
77968;SDS011;67161;0.000;0.000;2023-04-06T07:26:52;803.28;;;256.52;;
77968;SDS011;67161;0.000;0.000;2023-04-06T07:29:18;805.13;;;256.17;;
77968;SDS011;67161;0.000;0.000;2023-04-06T07:31:44;816.08;;;257.45;;
77968;SDS011;67161;0.000;0.000;2023-04-06T07:34:09;819.05;;;258.23;;
77968;SDS011;67161;0.000;0.000;2023-04-06T07:36:35;816.58;;;259.42;;
77968;SDS011;67161;0.000;0.000;2023-04-06T07:39:01;824.28;;;260.08;;
77968;SDS011;67161;0.000;0.000;2023-04-06T07:41:26;822.25;;;262.50;;
77968;SDS011;67161;0.000;0.000;2023-04-06T07:43:52;834.15;;;265.38;;
77968;SDS011;67161;0.000;0.000;2023-04-06T07:46:18;823.10;;;260.60;;
77968;SDS011;67161;0.000;0.000;2023-04-06T07:48:43;812.47;;;258.73;;
77968;SDS011;67161;0.000;0.000;2023-04-06T07:51:09;814.17;;;257.55;;
77968;SDS011;67161;0.000;0.000;2023-04-06T07:53:39;808.40;;;257.55;;
77968;SDS011;67161;0.000;0.000;2023-04-06T07:56:04;814.88;;;257.35;;
77968;SDS011;67161;0.000;0.000;2023-04-06T07:58:30;826.25;;;259.40;;
77968;SDS011;67161;0.000;0.000;2023-04-06T08:00:56;820.90;;;261.10;;
77968;SDS011;67161;0.000;0.000;2023-04-06T08:03:22;820.08;;;260.67;;
77968;SDS011;67161;0.000;0.000;2023-04-06T08:05:50;814.78;;;257.70;;
77968;SDS011;67161;0.000;0.000;2023-04-06T08:08:17;811.55;;;257.73;;
77968;SDS011;67161;0.000;0.000;2023-04-06T08:10:43;818.25;;;258.83;;
77968;SDS011;67161;0.000;0.000;2023-04-06T08:13:09;812.67;;;258.50;;
77968;SDS011;67161;0.000;0.000;2023-04-06T08:15:35;817.15;;;258.60;;
77968;SDS011;67161;0.000;0.000;2023-04-06T08:18:01;815.78;;;258.13;;
77968;SDS011;67161;0.000;0.000;2023-04-06T08:20:26;818.75;;;259.17;;
77968;SDS011;67161;0.000;0.000;2023-04-06T08:22:52;814.20;;;258.83;;
77968;SDS011;67161;0.000;0.000;2023-04-06T08:25:17;816.63;;;258.80;;
77968;SDS011;67161;0.000;0.000;2023-04-06T08:27:43;812.42;;;257.17;;
77968;SDS011;67161;0.000;0.000;2023-04-06T08:30:08;805.22;;;255.63;;
77968;SDS011;67161;0.000;0.000;2023-04-06T08:32:34;810.20;;;257.52;;
77968;SDS011;67161;0.000;0.000;2023-04-06T08:35:00;807.67;;;255.10;;
77968;SDS011;67161;0.000;0.000;2023-04-06T08:37:26;812.13;;;256.33;;
77968;SDS011;67161;0.000;0.000;2023-04-06T08:39:52;806.67;;;255.57;;
77968;SDS011;67161;0.000;0.000;2023-04-06T08:42:21;808.42;;;255.38;;
77968;SDS011;67161;0.000;0.000;2023-04-06T08:44:49;803.33;;;254.20;;
77968;SDS011;67161;0.000;0.000;2023-04-06T08:47:19;807.88;;;255.75;;
77968;SDS011;67161;0.000;0.000;2023-04-06T08:49:45;811.72;;;257.35;;
77968;SDS011;67161;0.000;0.000;2023-04-06T08:52:11;803.30;;;253.43;;
77968;SDS011;67161;0.000;0.000;2023-04-06T08:54:37;803.33;;;254.63;;
77968;SDS011;67161;0.000;0.000;2023-04-06T08:57:04;803.30;;;253.23;;
77968;SDS011;67161;0.000;0.000;2023-04-06T08:59:31;802.92;;;253.75;;
77968;SDS011;67161;0.000;0.000;2023-04-06T09:01:57;798.22;;;251.40;;
77968;SDS011;67161;0.000;0.000;2023-04-06T09:04:23;799.42;;;253.02;;
77968;SDS011;67161;0.000;0.000;2023-04-06T09:06:51;798.03;;;253.10;;
77968;SDS011;67161;0.000;0.000;2023-04-06T09:09:18;799.35;;;252.05;;
77968;SDS011;67161;0.000;0.000;2023-04-06T09:14:10;795.05;;;251.23;;
77968;SDS011;67161;0.000;0.000;2023-04-06T09:16:39;804.40;;;253.90;;
77968;SDS011;67161;0.000;0.000;2023-04-06T09:19:07;803.63;;;254.50;;
77968;SDS011;67161;0.000;0.000;2023-04-06T09:21:33;804.35;;;253.90;;
77968;SDS011;67161;0.000;0.000;2023-04-06T09:23:59;804.15;;;253.70;;
77968;SDS011;67161;0.000;0.000;2023-04-06T09:26:25;803.78;;;254.63;;
77968;SDS011;67161;0.000;0.000;2023-04-06T09:28:55;800.85;;;251.77;;
77968;SDS011;67161;0.000;0.000;2023-04-06T09:31:23;800.08;;;252.65;;
77968;SDS011;67161;0.000;0.000;2023-04-06T09:33:50;803.38;;;253.32;;
77968;SDS011;67161;0.000;0.000;2023-04-06T09:36:17;796.50;;;251.50;;
77968;SDS011;67161;0.000;0.000;2023-04-06T09:38:53;804.60;;;252.52;;
77968;SDS011;67161;0.000;0.000;2023-04-06T09:41:21;803.20;;;253.80;;
77968;SDS011;67161;0.000;0.000;2023-04-06T09:43:47;797.17;;;251.05;;
77968;SDS011;67161;0.000;0.000;2023-04-06T09:46:14;800.13;;;251.52;;
77968;SDS011;67161;0.000;0.000;2023-04-06T09:48:40;803.78;;;253.95;;
77968;SDS011;67161;0.000;0.000;2023-04-06T09:51:06;806.42;;;253.15;;
77968;SDS011;67161;0.000;0.000;2023-04-06T09:53:37;802.28;;;253.27;;
77968;SDS011;67161;0.000;0.000;2023-04-06T09:56:06;809.15;;;255.20;;
77968;SDS011;67161;0.000;0.000;2023-04-06T09:58:37;812.83;;;257.08;;
77968;SDS011;67161;0.000;0.000;2023-04-06T10:01:12;807.63;;;255.07;;
77968;SDS011;67161;0.000;0.000;2023-04-06T10:03:46;809.22;;;254.73;;
77968;SDS011;67161;0.000;0.000;2023-04-06T10:06:21;806.60;;;253.60;;
77968;SDS011;67161;0.000;0.000;2023-04-06T10:08:48;812.83;;;255.13;;
77968;SDS011;67161;0.000;0.000;2023-04-06T10:11:16;807.45;;;253.90;;
77968;SDS011;67161;0.000;0.000;2023-04-06T10:13:42;815.00;;;256.10;;
77968;SDS011;67161;0.000;0.000;2023-04-06T10:16:10;811.88;;;256.13;;
77968;SDS011;67161;0.000;0.000;2023-04-06T10:18:38;811.78;;;255.98;;
77968;SDS011;67161;0.000;0.000;2023-04-06T10:21:08;815.92;;;255.88;;
77968;SDS011;67161;0.000;0.000;2023-04-06T10:23:47;815.30;;;256.90;;
77968;SDS011;67161;0.000;0.000;2023-04-06T10:26:17;818.45;;;256.98;;
77968;SDS011;67161;0.000;0.000;2023-04-06T10:28:45;814.85;;;257.08;;
77968;SDS011;67161;0.000;0.000;2023-04-06T10:31:12;818.58;;;257.85;;
77968;SDS011;67161;0.000;0.000;2023-04-06T10:33:37;810.72;;;256.25;;
77968;SDS011;67161;0.000;0.000;2023-04-06T10:36:13;816.40;;;257.45;;
77968;SDS011;67161;0.000;0.000;2023-04-06T10:38:40;817.88;;;258.00;;
77968;SDS011;67161;0.000;0.000;2023-04-06T10:41:07;818.88;;;258.60;;
77968;SDS011;67161;0.000;0.000;2023-04-06T10:43:37;814.35;;;255.93;;
77968;SDS011;67161;0.000;0.000;2023-04-06T10:46:05;816.92;;;257.67;;
77968;SDS011;67161;0.000;0.000;2023-04-06T10:48:41;809.88;;;254.73;;
77968;SDS011;67161;0.000;0.000;2023-04-06T10:51:15;820.97;;;258.42;;
77968;SDS011;67161;0.000;0.000;2023-04-06T10:53:43;813.55;;;257.30;;
77968;SDS011;67161;0.000;0.000;2023-04-06T10:56:11;814.58;;;256.95;;
77968;SDS011;67161;0.000;0.000;2023-04-06T10:58:50;816.55;;;256.83;;
77968;SDS011;67161;0.000;0.000;2023-04-06T11:01:18;818.08;;;257.33;;
77968;SDS011;67161;0.000;0.000;2023-04-06T11:03:45;819.00;;;256.27;;
77968;SDS011;67161;0.000;0.000;2023-04-06T11:06:22;812.80;;;256.90;;
77968;SDS011;67161;0.000;0.000;2023-04-06T11:08:50;816.08;;;257.27;;
77968;SDS011;67161;0.000;0.000;2023-04-06T11:11:16;819.30;;;258.52;;
77968;SDS011;67161;0.000;0.000;2023-04-06T11:16:12;809.67;;;257.20;;
77968;SDS011;67161;0.000;0.000;2023-04-06T11:18:52;807.53;;;256.63;;
77968;SDS011;67161;0.000;0.000;2023-04-06T11:26:38;804.80;;;255.75;;
77968;SDS011;67161;0.000;0.000;2023-04-06T11:29:11;798.15;;;252.35;;
77968;SDS011;67161;0.000;0.000;2023-04-06T11:31:47;804.47;;;254.98;;
77968;SDS011;67161;0.000;0.000;2023-04-06T11:34:23;797.03;;;252.90;;
77968;SDS011;67161;0.000;0.000;2023-04-06T11:36:59;797.08;;;252.73;;
77968;SDS011;67161;0.000;0.000;2023-04-06T11:39:27;801.88;;;254.20;;
77968;SDS011;67161;0.000;0.000;2023-04-06T11:41:56;783.17;;;250.15;;
77968;SDS011;67161;0.000;0.000;2023-04-06T11:44:28;786.53;;;250.77;;
77968;SDS011;67161;0.000;0.000;2023-04-06T11:46:58;778.50;;;248.95;;
77968;SDS011;67161;0.000;0.000;2023-04-06T11:49:28;766.75;;;243.02;;
77968;SDS011;67161;0.000;0.000;2023-04-06T11:51:55;750.42;;;239.38;;
77968;SDS011;67161;0.000;0.000;2023-04-06T11:54:31;779.72;;;248.00;;
77968;SDS011;67161;0.000;0.000;2023-04-06T11:56:57;778.75;;;247.43;;
77968;SDS011;67161;0.000;0.000;2023-04-06T11:59:23;782.40;;;249.48;;
77968;SDS011;67161;0.000;0.000;2023-04-06T12:01:49;782.13;;;249.77;;
77968;SDS011;67161;0.000;0.000;2023-04-06T12:04:14;787.10;;;250.07;;
77968;SDS011;67161;0.000;0.000;2023-04-06T12:06:40;787.38;;;249.95;;
77968;SDS011;67161;0.000;0.000;2023-04-06T12:09:05;788.25;;;250.80;;
77968;SDS011;67161;0.000;0.000;2023-04-06T12:11:31;792.88;;;253.10;;
77968;SDS011;67161;0.000;0.000;2023-04-06T12:13:57;791.03;;;252.52;;
77968;SDS011;67161;0.000;0.000;2023-04-06T12:16:24;784.35;;;251.98;;
77968;SDS011;67161;0.000;0.000;2023-04-06T12:18:49;790.45;;;252.38;;
77968;SDS011;67161;0.000;0.000;2023-04-06T12:21:16;786.70;;;250.23;;
77968;SDS011;67161;0.000;0.000;2023-04-06T12:23:41;789.92;;;251.75;;
77968;SDS011;67161;0.000;0.000;2023-04-06T12:26:07;790.10;;;251.95;;
77968;SDS011;67161;0.000;0.000;2023-04-06T12:28:32;790.22;;;253.30;;
77968;SDS011;67161;0.000;0.000;2023-04-06T12:30:58;793.30;;;251.60;;
77968;SDS011;67161;0.000;0.000;2023-04-06T12:33:25;786.67;;;252.98;;
77968;SDS011;67161;0.000;0.000;2023-04-06T12:35:51;785.30;;;249.50;;
77968;SDS011;67161;0.000;0.000;2023-04-06T12:38:16;783.80;;;248.73;;
77968;SDS011;67161;0.000;0.000;2023-04-06T12:40:43;782.85;;;249.48;;
77968;SDS011;67161;0.000;0.000;2023-04-06T12:43:08;789.78;;;251.77;;
77968;SDS011;67161;0.000;0.000;2023-04-06T12:45:34;778.00;;;247.50;;
77968;SDS011;67161;0.000;0.000;2023-04-06T12:48:00;783.13;;;250.40;;
77968;SDS011;67161;0.000;0.000;2023-04-06T12:50:26;778.53;;;248.82;;
77968;SDS011;67161;0.000;0.000;2023-04-06T12:52:52;779.63;;;248.82;;
77968;SDS011;67161;0.000;0.000;2023-04-06T12:55:17;780.78;;;247.75;;
77968;SDS011;67161;0.000;0.000;2023-04-06T12:57:44;790.42;;;250.93;;
77968;SDS011;67161;0.000;0.000;2023-04-06T13:00:10;780.95;;;249.50;;
77968;SDS011;67161;0.000;0.000;2023-04-06T13:02:36;785.60;;;249.85;;
77968;SDS011;67161;0.000;0.000;2023-04-06T13:05:02;800.47;;;254.13;;
77968;SDS011;67161;0.000;0.000;2023-04-06T13:07:27;794.75;;;252.30;;
77968;SDS011;67161;0.000;0.000;2023-04-06T13:09:53;789.42;;;251.60;;
77968;SDS011;67161;0.000;0.000;2023-04-06T13:12:18;784.92;;;251.55;;
77968;SDS011;67161;0.000;0.000;2023-04-06T13:14:44;791.53;;;251.82;;
77968;SDS011;67161;0.000;0.000;2023-04-06T13:17:15;790.40;;;252.30;;
77968;SDS011;67161;0.000;0.000;2023-04-06T13:19:41;797.13;;;252.88;;
77968;SDS011;67161;0.000;0.000;2023-04-06T13:22:07;788.38;;;252.70;;
77968;SDS011;67161;0.000;0.000;2023-04-06T13:24:33;782.10;;;249.57;;
77968;SDS011;67161;0.000;0.000;2023-04-06T13:26:59;779.22;;;248.68;;
77968;SDS011;67161;0.000;0.000;2023-04-06T13:29:25;769.75;;;247.02;;
77968;SDS011;67161;0.000;0.000;2023-04-06T13:31:52;766.65;;;243.45;;
77968;SDS011;67161;0.000;0.000;2023-04-06T13:34:17;748.10;;;239.10;;
77968;SDS011;67161;0.000;0.000;2023-04-06T13:36:43;746.00;;;239.35;;
77968;SDS011;67161;0.000;0.000;2023-04-06T13:39:09;752.58;;;239.73;;
77968;SDS011;67161;0.000;0.000;2023-04-06T13:41:34;749.40;;;238.63;;
77968;SDS011;67161;0.000;0.000;2023-04-06T13:44:00;750.08;;;238.52;;
77968;SDS011;67161;0.000;0.000;2023-04-06T13:46:26;748.53;;;238.93;;
77968;SDS011;67161;0.000;0.000;2023-04-06T13:48:52;751.45;;;238.65;;
77968;SDS011;67161;0.000;0.000;2023-04-06T13:51:18;748.67;;;237.43;;
77968;SDS011;67161;0.000;0.000;2023-04-06T13:53:43;747.55;;;237.18;;
77968;SDS011;67161;0.000;0.000;2023-04-06T13:56:09;744.13;;;237.38;;
77968;SDS011;67161;0.000;0.000;2023-04-06T13:58:35;744.47;;;236.13;;
77968;SDS011;67161;0.000;0.000;2023-04-06T14:01:04;737.67;;;235.68;;
77968;SDS011;67161;0.000;0.000;2023-04-06T14:03:34;741.33;;;235.27;;
77968;SDS011;67161;0.000;0.000;2023-04-06T14:06:00;754.38;;;240.23;;
77968;SDS011;67161;0.000;0.000;2023-04-06T14:08:26;749.35;;;239.50;;
77968;SDS011;67161;0.000;0.000;2023-04-06T14:10:52;754.75;;;237.70;;
77968;SDS011;67161;0.000;0.000;2023-04-06T14:13:19;752.00;;;239.82;;
77968;SDS011;67161;0.000;0.000;2023-04-06T14:15:44;751.10;;;237.95;;